OINN  Noshahr  Airport

Iran

Add Bookmark
ICAO OINN
IATA NSH
Type Airport
Status Operational
Latitude
36° 39' 47" N
36.663300
Longitude
51° 27' 52" E
51.464699
Local (GMT +4.5 ) UTC
Jul 30, 2016 07:58 am Jul 30, 2016 03:28
Sunrise-Sunset Local UTC
Begin Civil Twilight 05:38 am 01:08
Sunrise 06:07 am 01:37
Sunset 08:13 pm 15:43
End Civil Twilight 08:42 pm 16:12
VFR
VFR
MVFR
MVFR
IFR
IFR
LIFR
LIFR
Unknown
Unavailable

Current Weather

METAR Observed MVFR
OINN 300300Z 00000KT 9999 SCT018 FEW022CB BKN026 22/21 Q1011 Sat, Jul 30, 2016 @ 03:00 UTC
(28 Minutes ago)
Marginal Visual Flight Rules
Wind Visibility Clouds Conditions
Calm 10 km or more
  • Scattered at 1,800 ft AGL
  • Few at 2,200 ft AGL
  • Broken at 2,600 ft AGL
  • No significant weather
Temperatures Readings Precipitation
Current Temp
22°C
72°F
Dewpoint
21°C
70°F
Humidity 94%
Altimeter 29.85" Hg
Sea Level Pressure 1,011 mb
None Recorded

Additional weather within a 92.6km radius of OINN

Map ICAO Location
OINR 75km W/NW (292°)
VFR
VFR
MVFR
MVFR
IFR
IFR
LIFR
LIFR
Unknown
Unavailable
-
-

CheckWX.com is intended as a tool to help pilots better visualize weather data. It is not intended as a substitute for an official weather briefing obtained from a Flight Service Station. CheckWX.com does not meet the FAA requirements for an official pre-flight weather briefing. Therefore, it's important that pilots still call and obtain an official FSS pre-flight weather briefing.

© 2007-2016 CheckWX.com
03:28:01 UTC